sensor_id;sensor_type;location;lat;lon;timestamp;P1;durP1;ratioP1;P2;durP2;ratioP2
15071;SDS011;7635;56.696;13.002;2023-08-06T00:00:19;4.95;;;3.63;;
15071;SDS011;7635;56.696;13.002;2023-08-06T00:02:47;3.17;;;2.88;;
15071;SDS011;7635;56.696;13.002;2023-08-06T00:05:14;2.05;;;1.90;;
15071;SDS011;7635;56.696;13.002;2023-08-06T00:07:43;1.60;;;1.50;;
15071;SDS011;7635;56.696;13.002;2023-08-06T00:10:11;1.48;;;1.30;;
15071;SDS011;7635;56.696;13.002;2023-08-06T00:12:37;1.10;;;1.10;;
15071;SDS011;7635;56.696;13.002;2023-08-06T00:15:04;1.70;;;1.60;;
15071;SDS011;7635;56.696;13.002;2023-08-06T00:17:32;1.38;;;1.27;;
15071;SDS011;7635;56.696;13.002;2023-08-06T00:19:59;1.45;;;1.35;;
15071;SDS011;7635;56.696;13.002;2023-08-06T00:22:29;1.40;;;1.30;;
15071;SDS011;7635;56.696;13.002;2023-08-06T00:24:56;2.67;;;1.48;;
15071;SDS011;7635;56.696;13.002;2023-08-06T00:27:24;1.45;;;1.35;;
15071;SDS011;7635;56.696;13.002;2023-08-06T00:29:52;1.63;;;1.52;;
15071;SDS011;7635;56.696;13.002;2023-08-06T00:32:18;1.92;;;1.73;;
15071;SDS011;7635;56.696;13.002;2023-08-06T00:34:45;2.65;;;1.35;;
15071;SDS011;7635;56.696;13.002;2023-08-06T00:37:14;1.30;;;1.20;;
15071;SDS011;7635;56.696;13.002;2023-08-06T00:39:41;1.30;;;0.95;;
15071;SDS011;7635;56.696;13.002;2023-08-06T00:42:08;1.60;;;1.38;;
15071;SDS011;7635;56.696;13.002;2023-08-06T00:44:36;1.30;;;1.20;;
15071;SDS011;7635;56.696;13.002;2023-08-06T00:47:03;3.10;;;1.25;;
15071;SDS011;7635;56.696;13.002;2023-08-06T00:49:30;1.30;;;1.20;;
15071;SDS011;7635;56.696;13.002;2023-08-06T00:51:57;1.27;;;1.17;;
15071;SDS011;7635;56.696;13.002;2023-08-06T00:54:24;2.28;;;1.20;;
15071;SDS011;7635;56.696;13.002;2023-08-06T00:56:52;1.05;;;1.05;;
15071;SDS011;7635;56.696;13.002;2023-08-06T00:59:19;1.20;;;1.10;;
15071;SDS011;7635;56.696;13.002;2023-08-06T01:01:47;1.00;;;1.00;;
15071;SDS011;7635;56.696;13.002;2023-08-06T01:04:15;1.33;;;1.23;;
15071;SDS011;7635;56.696;13.002;2023-08-06T01:06:43;2.03;;;1.40;;
15071;SDS011;7635;56.696;13.002;2023-08-06T01:09:16;1.40;;;1.30;;
15071;SDS011;7635;56.696;13.002;2023-08-06T01:11:58;1.75;;;1.20;;
15071;SDS011;7635;56.696;13.002;2023-08-06T01:14:33;1.30;;;1.08;;
15071;SDS011;7635;56.696;13.002;2023-08-06T01:17:07;1.63;;;1.20;;
15071;SDS011;7635;56.696;13.002;2023-08-06T01:19:35;1.63;;;1.40;;
15071;SDS011;7635;56.696;13.002;2023-08-06T01:22:03;1.33;;;1.23;;
15071;SDS011;7635;56.696;13.002;2023-08-06T01:24:30;1.30;;;1.20;;
15071;SDS011;7635;56.696;13.002;2023-08-06T01:26:58;4.85;;;1.38;;
15071;SDS011;7635;56.696;13.002;2023-08-06T01:29:35;1.13;;;1.13;;
15071;SDS011;7635;56.696;13.002;2023-08-06T01:32:08;1.67;;;1.23;;
15071;SDS011;7635;56.696;13.002;2023-08-06T01:34:38;1.50;;;1.30;;
15071;SDS011;7635;56.696;13.002;2023-08-06T01:37:08;1.25;;;1.15;;
15071;SDS011;7635;56.696;13.002;2023-08-06T01:39:35;1.00;;;1.00;;
15071;SDS011;7635;56.696;13.002;2023-08-06T01:42:02;1.45;;;1.35;;
15071;SDS011;7635;56.696;13.002;2023-08-06T01:44:29;1.50;;;1.40;;
15071;SDS011;7635;56.696;13.002;2023-08-06T01:46:56;1.25;;;1.15;;
15071;SDS011;7635;56.696;13.002;2023-08-06T01:49:23;1.17;;;1.13;;
15071;SDS011;7635;56.696;13.002;2023-08-06T01:51:50;1.50;;;1.40;;
15071;SDS011;7635;56.696;13.002;2023-08-06T01:54:18;1.30;;;1.20;;
15071;SDS011;7635;56.696;13.002;2023-08-06T01:56:44;0.93;;;0.93;;
15071;SDS011;7635;56.696;13.002;2023-08-06T01:59:11;4.88;;;1.40;;
15071;SDS011;7635;56.696;13.002;2023-08-06T02:01:38;1.20;;;1.10;;
15071;SDS011;7635;56.696;13.002;2023-08-06T02:04:04;2.67;;;1.02;;
15071;SDS011;7635;56.696;13.002;2023-08-06T02:06:31;2.53;;;1.33;;
15071;SDS011;7635;56.696;13.002;2023-08-06T02:08:58;2.03;;;1.48;;
15071;SDS011;7635;56.696;13.002;2023-08-06T02:11:26;1.40;;;1.30;;
15071;SDS011;7635;56.696;13.002;2023-08-06T02:13:52;1.92;;;1.20;;
15071;SDS011;7635;56.696;13.002;2023-08-06T02:16:19;1.35;;;1.25;;
15071;SDS011;7635;56.696;13.002;2023-08-06T02:18:46;1.38;;;1.10;;
15071;SDS011;7635;56.696;13.002;2023-08-06T02:21:12;1.67;;;1.20;;
15071;SDS011;7635;56.696;13.002;2023-08-06T02:23:39;1.40;;;1.30;;
15071;SDS011;7635;56.696;13.002;2023-08-06T02:26:09;2.08;;;1.40;;
15071;SDS011;7635;56.696;13.002;2023-08-06T02:28:37;1.75;;;1.27;;
15071;SDS011;7635;56.696;13.002;2023-08-06T02:31:04;1.77;;;1.40;;
15071;SDS011;7635;56.696;13.002;2023-08-06T02:33:31;1.23;;;1.13;;
15071;SDS011;7635;56.696;13.002;2023-08-06T02:35:58;1.20;;;1.13;;
15071;SDS011;7635;56.696;13.002;2023-08-06T02:38:26;1.50;;;1.40;;
15071;SDS011;7635;56.696;13.002;2023-08-06T02:40:53;1.10;;;1.08;;
15071;SDS011;7635;56.696;13.002;2023-08-06T02:43:19;1.50;;;1.23;;
15071;SDS011;7635;56.696;13.002;2023-08-06T02:45:47;1.65;;;1.15;;
15071;SDS011;7635;56.696;13.002;2023-08-06T02:48:14;1.08;;;1.00;;
15071;SDS011;7635;56.696;13.002;2023-08-06T02:50:43;1.17;;;1.08;;
15071;SDS011;7635;56.696;13.002;2023-08-06T02:53:09;1.05;;;1.00;;
15071;SDS011;7635;56.696;13.002;2023-08-06T02:55:36;1.35;;;1.30;;
15071;SDS011;7635;56.696;13.002;2023-08-06T02:58:03;1.17;;;1.17;;
15071;SDS011;7635;56.696;13.002;2023-08-06T03:00:30;1.25;;;1.20;;
15071;SDS011;7635;56.696;13.002;2023-08-06T03:02:58;5.65;;;1.10;;
15071;SDS011;7635;56.696;13.002;2023-08-06T03:05:24;1.40;;;1.30;;
15071;SDS011;7635;56.696;13.002;2023-08-06T03:07:51;1.30;;;1.20;;
15071;SDS011;7635;56.696;13.002;2023-08-06T03:10:17;0.90;;;0.90;;
15071;SDS011;7635;56.696;13.002;2023-08-06T03:12:45;4.43;;;1.20;;
15071;SDS011;7635;56.696;13.002;2023-08-06T03:15:12;1.60;;;1.10;;
15071;SDS011;7635;56.696;13.002;2023-08-06T03:17:38;1.58;;;1.17;;
15071;SDS011;7635;56.696;13.002;2023-08-06T03:20:07;1.48;;;1.38;;
15071;SDS011;7635;56.696;13.002;2023-08-06T03:22:34;1.27;;;1.10;;
15071;SDS011;7635;56.696;13.002;2023-08-06T03:25:01;1.00;;;0.98;;
15071;SDS011;7635;56.696;13.002;2023-08-06T03:27:28;1.10;;;1.05;;
15071;SDS011;7635;56.696;13.002;2023-08-06T03:29:55;1.40;;;1.20;;
15071;SDS011;7635;56.696;13.002;2023-08-06T03:32:22;2.85;;;1.23;;
15071;SDS011;7635;56.696;13.002;2023-08-06T03:34:48;1.30;;;1.20;;
15071;SDS011;7635;56.696;13.002;2023-08-06T03:37:16;2.08;;;1.27;;
15071;SDS011;7635;56.696;13.002;2023-08-06T03:39:43;0.95;;;0.95;;
15071;SDS011;7635;56.696;13.002;2023-08-06T03:42:10;2.35;;;1.48;;
15071;SDS011;7635;56.696;13.002;2023-08-06T03:44:36;1.50;;;1.40;;
15071;SDS011;7635;56.696;13.002;2023-08-06T03:47:04;1.50;;;1.40;;
15071;SDS011;7635;56.696;13.002;2023-08-06T03:49:31;1.42;;;1.33;;
15071;SDS011;7635;56.696;13.002;2023-08-06T03:51:58;1.30;;;1.20;;
15071;SDS011;7635;56.696;13.002;2023-08-06T03:54:26;1.33;;;1.23;;
15071;SDS011;7635;56.696;13.002;2023-08-06T03:56:53;1.30;;;1.20;;
15071;SDS011;7635;56.696;13.002;2023-08-06T03:59:19;1.45;;;1.35;;
15071;SDS011;7635;56.696;13.002;2023-08-06T04:01:46;1.38;;;1.00;;
15071;SDS011;7635;56.696;13.002;2023-08-06T04:04:12;1.45;;;1.25;;
15071;SDS011;7635;56.696;13.002;2023-08-06T04:06:39;3.10;;;1.60;;
15071;SDS011;7635;56.696;13.002;2023-08-06T04:09:06;1.23;;;1.10;;
15071;SDS011;7635;56.696;13.002;2023-08-06T04:11:34;1.10;;;1.10;;
15071;SDS011;7635;56.696;13.002;2023-08-06T04:14:01;1.15;;;1.05;;
15071;SDS011;7635;56.696;13.002;2023-08-06T04:16:27;1.60;;;1.25;;
15071;SDS011;7635;56.696;13.002;2023-08-06T04:18:54;1.30;;;1.20;;
15071;SDS011;7635;56.696;13.002;2023-08-06T04:21:21;1.00;;;1.00;;
15071;SDS011;7635;56.696;13.002;2023-08-06T04:23:48;1.38;;;1.27;;
15071;SDS011;7635;56.696;13.002;2023-08-06T04:26:15;1.40;;;1.30;;
15071;SDS011;7635;56.696;13.002;2023-08-06T04:28:43;1.40;;;1.30;;
15071;SDS011;7635;56.696;13.002;2023-08-06T04:31:09;1.70;;;1.60;;
15071;SDS011;7635;56.696;13.002;2023-08-06T04:33:36;3.65;;;1.45;;
15071;SDS011;7635;56.696;13.002;2023-08-06T04:36:03;1.92;;;1.45;;
15071;SDS011;7635;56.696;13.002;2023-08-06T04:38:30;1.20;;;1.17;;
15071;SDS011;7635;56.696;13.002;2023-08-06T04:40:57;2.15;;;1.33;;
15071;SDS011;7635;56.696;13.002;2023-08-06T04:43:24;1.40;;;1.30;;
15071;SDS011;7635;56.696;13.002;2023-08-06T04:45:53;1.40;;;1.30;;
15071;SDS011;7635;56.696;13.002;2023-08-06T04:48:20;1.50;;;1.40;;
15071;SDS011;7635;56.696;13.002;2023-08-06T04:50:48;1.50;;;1.40;;
15071;SDS011;7635;56.696;13.002;2023-08-06T04:53:16;1.60;;;1.50;;
15071;SDS011;7635;56.696;13.002;2023-08-06T04:55:43;1.80;;;1.40;;
15071;SDS011;7635;56.696;13.002;2023-08-06T04:58:10;1.55;;;1.42;;
15071;SDS011;7635;56.696;13.002;2023-08-06T05:00:37;1.02;;;1.02;;
15071;SDS011;7635;56.696;13.002;2023-08-06T05:03:05;1.25;;;1.20;;
15071;SDS011;7635;56.696;13.002;2023-08-06T05:05:32;1.95;;;1.40;;
15071;SDS011;7635;56.696;13.002;2023-08-06T05:07:59;1.40;;;1.30;;
15071;SDS011;7635;56.696;13.002;2023-08-06T05:10:26;1.15;;;1.15;;
15071;SDS011;7635;56.696;13.002;2023-08-06T05:12:53;1.30;;;1.20;;
15071;SDS011;7635;56.696;13.002;2023-08-06T05:15:20;2.83;;;1.80;;
15071;SDS011;7635;56.696;13.002;2023-08-06T05:17:46;1.38;;;1.27;;
15071;SDS011;7635;56.696;13.002;2023-08-06T05:20:14;1.92;;;1.42;;
15071;SDS011;7635;56.696;13.002;2023-08-06T05:22:42;1.30;;;1.20;;
15071;SDS011;7635;56.696;13.002;2023-08-06T05:25:09;1.30;;;1.20;;
15071;SDS011;7635;56.696;13.002;2023-08-06T05:27:38;2.40;;;1.52;;
15071;SDS011;7635;56.696;13.002;2023-08-06T05:30:05;2.03;;;1.63;;
15071;SDS011;7635;56.696;13.002;2023-08-06T05:32:33;1.10;;;1.10;;
15071;SDS011;7635;56.696;13.002;2023-08-06T05:34:59;2.00;;;1.60;;
15071;SDS011;7635;56.696;13.002;2023-08-06T05:37:27;1.30;;;1.20;;
15071;SDS011;7635;56.696;13.002;2023-08-06T05:39:54;2.78;;;1.27;;
15071;SDS011;7635;56.696;13.002;2023-08-06T05:42:21;1.60;;;1.50;;
15071;SDS011;7635;56.696;13.002;2023-08-06T05:44:47;1.50;;;1.40;;
15071;SDS011;7635;56.696;13.002;2023-08-06T05:47:14;1.58;;;1.48;;
15071;SDS011;7635;56.696;13.002;2023-08-06T05:49:40;1.48;;;1.30;;
15071;SDS011;7635;56.696;13.002;2023-08-06T05:52:07;1.58;;;1.45;;
15071;SDS011;7635;56.696;13.002;2023-08-06T05:54:35;1.27;;;1.23;;
15071;SDS011;7635;56.696;13.002;2023-08-06T05:57:02;2.30;;;1.63;;
15071;SDS011;7635;56.696;13.002;2023-08-06T05:59:29;1.50;;;1.40;;
15071;SDS011;7635;56.696;13.002;2023-08-06T06:01:56;1.42;;;1.33;;
15071;SDS011;7635;56.696;13.002;2023-08-06T06:04:23;1.80;;;1.40;;
15071;SDS011;7635;56.696;13.002;2023-08-06T06:06:50;1.50;;;1.40;;
15071;SDS011;7635;56.696;13.002;2023-08-06T06:09:17;1.55;;;1.20;;
15071;SDS011;7635;56.696;13.002;2023-08-06T06:11:45;1.70;;;1.60;;
15071;SDS011;7635;56.696;13.002;2023-08-06T06:14:12;1.83;;;1.50;;
15071;SDS011;7635;56.696;13.002;2023-08-06T06:16:39;1.40;;;1.30;;
15071;SDS011;7635;56.696;13.002;2023-08-06T06:19:06;4.03;;;1.23;;
15071;SDS011;7635;56.696;13.002;2023-08-06T06:21:32;1.40;;;1.30;;
15071;SDS011;7635;56.696;13.002;2023-08-06T06:23:59;3.20;;;1.35;;
15071;SDS011;7635;56.696;13.002;2023-08-06T06:26:26;1.63;;;1.45;;
15071;SDS011;7635;56.696;13.002;2023-08-06T06:28:54;1.70;;;1.45;;
15071;SDS011;7635;56.696;13.002;2023-08-06T06:31:21;1.20;;;1.20;;
15071;SDS011;7635;56.696;13.002;2023-08-06T06:33:48;1.60;;;1.50;;
15071;SDS011;7635;56.696;13.002;2023-08-06T06:36:14;1.73;;;1.58;;
15071;SDS011;7635;56.696;13.002;2023-08-06T06:38:41;1.40;;;1.30;;
15071;SDS011;7635;56.696;13.002;2023-08-06T06:41:08;1.30;;;1.20;;
15071;SDS011;7635;56.696;13.002;2023-08-06T06:43:34;2.97;;;1.35;;
15071;SDS011;7635;56.696;13.002;2023-08-06T06:46:04;1.40;;;1.30;;
15071;SDS011;7635;56.696;13.002;2023-08-06T06:48:31;1.23;;;1.20;;
15071;SDS011;7635;56.696;13.002;2023-08-06T06:50:59;1.60;;;1.50;;
15071;SDS011;7635;56.696;13.002;2023-08-06T06:53:26;1.77;;;1.67;;
15071;SDS011;7635;56.696;13.002;2023-08-06T06:55:53;1.70;;;1.60;;
15071;SDS011;7635;56.696;13.002;2023-08-06T06:58:20;3.22;;;1.38;;
15071;SDS011;7635;56.696;13.002;2023-08-06T07:00:47;1.55;;;1.30;;
15071;SDS011;7635;56.696;13.002;2023-08-06T07:03:15;1.65;;;1.55;;
15071;SDS011;7635;56.696;13.002;2023-08-06T07:05:43;1.17;;;1.17;;
15071;SDS011;7635;56.696;13.002;2023-08-06T07:08:10;1.30;;;1.20;;
15071;SDS011;7635;56.696;13.002;2023-08-06T07:10:36;1.50;;;1.40;;
15071;SDS011;7635;56.696;13.002;2023-08-06T07:13:03;1.60;;;1.50;;
15071;SDS011;7635;56.696;13.002;2023-08-06T07:15:30;1.50;;;1.40;;
15071;SDS011;7635;56.696;13.002;2023-08-06T07:17:57;1.40;;;1.30;;
15071;SDS011;7635;56.696;13.002;2023-08-06T07:20:25;1.52;;;1.42;;
15071;SDS011;7635;56.696;13.002;2023-08-06T07:22:54;1.52;;;1.40;;
15071;SDS011;7635;56.696;13.002;2023-08-06T07:25:21;1.27;;;1.17;;
15071;SDS011;7635;56.696;13.002;2023-08-06T07:27:47;1.38;;;1.27;;
15071;SDS011;7635;56.696;13.002;2023-08-06T07:30:14;1.73;;;1.60;;
15071;SDS011;7635;56.696;13.002;2023-08-06T07:32:41;1.52;;;1.42;;
15071;SDS011;7635;56.696;13.002;2023-08-06T07:35:08;1.63;;;1.45;;
15071;SDS011;7635;56.696;13.002;2023-08-06T07:37:38;1.45;;;1.30;;
15071;SDS011;7635;56.696;13.002;2023-08-06T07:40:06;2.00;;;1.55;;
15071;SDS011;7635;56.696;13.002;2023-08-06T07:42:33;1.40;;;1.30;;
15071;SDS011;7635;56.696;13.002;2023-08-06T07:45:01;1.40;;;1.30;;
15071;SDS011;7635;56.696;13.002;2023-08-06T07:47:28;1.52;;;1.40;;
15071;SDS011;7635;56.696;13.002;2023-08-06T07:49:55;3.45;;;1.52;;
15071;SDS011;7635;56.696;13.002;2023-08-06T07:52:22;1.50;;;1.40;;
15071;SDS011;7635;56.696;13.002;2023-08-06T07:54:50;1.45;;;1.27;;
15071;SDS011;7635;56.696;13.002;2023-08-06T07:57:16;3.38;;;1.60;;
15071;SDS011;7635;56.696;13.002;2023-08-06T07:59:43;1.50;;;1.40;;
15071;SDS011;7635;56.696;13.002;2023-08-06T08:02:10;1.40;;;1.23;;
15071;SDS011;7635;56.696;13.002;2023-08-06T08:04:36;2.80;;;1.48;;
15071;SDS011;7635;56.696;13.002;2023-08-06T08:07:03;1.23;;;1.20;;
15071;SDS011;7635;56.696;13.002;2023-08-06T08:09:30;3.25;;;1.88;;
15071;SDS011;7635;56.696;13.002;2023-08-06T08:11:58;1.67;;;1.50;;
15071;SDS011;7635;56.696;13.002;2023-08-06T08:14:27;2.05;;;1.70;;
15071;SDS011;7635;56.696;13.002;2023-08-06T08:16:58;1.52;;;1.33;;
15071;SDS011;7635;56.696;13.002;2023-08-06T08:19:25;1.50;;;1.33;;
15071;SDS011;7635;56.696;13.002;2023-08-06T08:21:51;1.40;;;1.25;;
15071;SDS011;7635;56.696;13.002;2023-08-06T08:24:19;1.73;;;1.27;;
15071;SDS011;7635;56.696;13.002;2023-08-06T08:26:48;1.40;;;1.30;;
15071;SDS011;7635;56.696;13.002;2023-08-06T08:29:16;6.82;;;1.60;;
15071;SDS011;7635;56.696;13.002;2023-08-06T08:31:43;2.28;;;1.75;;
15071;SDS011;7635;56.696;13.002;2023-08-06T08:34:10;1.80;;;1.48;;
15071;SDS011;7635;56.696;13.002;2023-08-06T08:36:36;2.33;;;1.48;;
15071;SDS011;7635;56.696;13.002;2023-08-06T08:39:03;1.58;;;1.48;;
15071;SDS011;7635;56.696;13.002;2023-08-06T08:41:31;1.77;;;1.27;;
15071;SDS011;7635;56.696;13.002;2023-08-06T08:43:59;2.70;;;1.80;;
15071;SDS011;7635;56.696;13.002;2023-08-06T08:46:27;2.72;;;1.70;;
15071;SDS011;7635;56.696;13.002;2023-08-06T08:48:56;3.40;;;1.60;;
15071;SDS011;7635;56.696;13.002;2023-08-06T08:51:25;1.60;;;1.50;;
15071;SDS011;7635;56.696;13.002;2023-08-06T08:53:53;1.52;;;1.35;;
15071;SDS011;7635;56.696;13.002;2023-08-06T08:56:22;2.33;;;1.58;;
15071;SDS011;7635;56.696;13.002;2023-08-06T08:58:49;1.88;;;1.70;;
15071;SDS011;7635;56.696;13.002;2023-08-06T09:01:18;1.70;;;1.60;;
15071;SDS011;7635;56.696;13.002;2023-08-06T09:03:47;1.60;;;1.50;;
15071;SDS011;7635;56.696;13.002;2023-08-06T09:06:14;1.92;;;1.50;;
15071;SDS011;7635;56.696;13.002;2023-08-06T09:08:46;1.85;;;1.60;;
15071;SDS011;7635;56.696;13.002;2023-08-06T09:11:16;1.88;;;1.55;;
15071;SDS011;7635;56.696;13.002;2023-08-06T09:13:45;3.22;;;1.83;;
15071;SDS011;7635;56.696;13.002;2023-08-06T09:16:13;1.58;;;1.48;;
15071;SDS011;7635;56.696;13.002;2023-08-06T09:18:39;1.85;;;1.50;;
15071;SDS011;7635;56.696;13.002;2023-08-06T09:21:07;2.78;;;1.83;;
15071;SDS011;7635;56.696;13.002;2023-08-06T09:23:40;1.85;;;1.55;;
15071;SDS011;7635;56.696;13.002;2023-08-06T09:26:06;2.55;;;1.70;;
15071;SDS011;7635;56.696;13.002;2023-08-06T09:28:37;2.55;;;1.88;;
15071;SDS011;7635;56.696;13.002;2023-08-06T09:31:04;2.78;;;1.70;;
15071;SDS011;7635;56.696;13.002;2023-08-06T09:33:31;1.75;;;1.65;;
15071;SDS011;7635;56.696;13.002;2023-08-06T09:35:59;2.10;;;1.73;;
15071;SDS011;7635;56.696;13.002;2023-08-06T09:38:37;3.20;;;1.60;;
15071;SDS011;7635;56.696;13.002;2023-08-06T09:41:05;1.58;;;1.48;;
15071;SDS011;7635;56.696;13.002;2023-08-06T09:43:39;4.80;;;2.05;;
15071;SDS011;7635;56.696;13.002;2023-08-06T09:46:10;2.88;;;1.60;;
15071;SDS011;7635;56.696;13.002;2023-08-06T09:48:39;1.75;;;1.65;;
15071;SDS011;7635;56.696;13.002;2023-08-06T09:51:06;1.80;;;1.70;;
15071;SDS011;7635;56.696;13.002;2023-08-06T09:53:36;3.92;;;1.42;;
15071;SDS011;7635;56.696;13.002;2023-08-06T09:56:04;4.93;;;1.80;;
15071;SDS011;7635;56.696;13.002;2023-08-06T09:58:31;3.47;;;2.08;;
15071;SDS011;7635;56.696;13.002;2023-08-06T10:00:58;2.13;;;1.73;;
15071;SDS011;7635;56.696;13.002;2023-08-06T10:03:25;2.10;;;1.90;;
15071;SDS011;7635;56.696;13.002;2023-08-06T10:05:54;2.92;;;2.00;;
15071;SDS011;7635;56.696;13.002;2023-08-06T10:08:23;2.65;;;1.63;;
15071;SDS011;7635;56.696;13.002;2023-08-06T10:10:50;1.65;;;1.55;;
15071;SDS011;7635;56.696;13.002;2023-08-06T10:13:17;1.88;;;1.58;;
15071;SDS011;7635;56.696;13.002;2023-08-06T10:15:47;2.05;;;1.60;;
15071;SDS011;7635;56.696;13.002;2023-08-06T10:18:14;1.70;;;1.60;;
15071;SDS011;7635;56.696;13.002;2023-08-06T10:20:46;2.65;;;1.70;;
15071;SDS011;7635;56.696;13.002;2023-08-06T10:23:13;2.28;;;1.63;;
15071;SDS011;7635;56.696;13.002;2023-08-06T10:25:41;2.15;;;1.50;;
15071;SDS011;7635;56.696;13.002;2023-08-06T10:28:09;1.75;;;1.45;;
15071;SDS011;7635;56.696;13.002;2023-08-06T10:30:41;1.77;;;1.67;;
15071;SDS011;7635;56.696;13.002;2023-08-06T10:33:08;3.97;;;1.70;;
15071;SDS011;7635;56.696;13.002;2023-08-06T10:35:40;1.88;;;1.77;;
15071;SDS011;7635;56.696;13.002;2023-08-06T10:38:10;1.85;;;1.75;;
15071;SDS011;7635;56.696;13.002;2023-08-06T10:40:39;3.53;;;1.85;;
15071;SDS011;7635;56.696;13.002;2023-08-06T10:43:08;1.75;;;1.63;;
15071;SDS011;7635;56.696;13.002;2023-08-06T10:45:51;2.83;;;1.60;;
15071;SDS011;7635;56.696;13.002;2023-08-06T10:48:27;1.83;;;1.73;;
15071;SDS011;7635;56.696;13.002;2023-08-06T10:50:55;2.67;;;1.45;;
15071;SDS011;7635;56.696;13.002;2023-08-06T10:53:22;2.10;;;1.60;;
15071;SDS011;7635;56.696;13.002;2023-08-06T10:55:50;2.63;;;1.75;;
15071;SDS011;7635;56.696;13.002;2023-08-06T10:58:17;2.22;;;1.65;;
15071;SDS011;7635;56.696;13.002;2023-08-06T11:00:44;2.20;;;1.88;;
15071;SDS011;7635;56.696;13.002;2023-08-06T11:03:11;3.67;;;1.60;;
15071;SDS011;7635;56.696;13.002;2023-08-06T11:05:38;1.70;;;1.58;;
